Minneapolis, Minnesota
Traffic Map
Current Weather Conditions
Minneapolis, Minnesota
Scattered Clouds
Scattered Clouds
82°
Feels Like: 82°
Wind Chill: 82° Ceiling: Unl
Heat Index: 82° Visibility: 10mi
Dew Point: 52° Wind: 16mph
Humidity: 35% Direction: 180° (S)
Pressure: 30in Gusts: 28mph
Raw Report DataKMSP 281953Z 18014G24KT 10SM FEW075 SCT300 28/11 A3000 RMK AO2 SLP156 T02780111
Traffic Incident Summary
Active as of:
Severity:
Category:
InformationThere was an issue retrieving the traffic information for this location. Please try a different location or try again shortly.
Advertisements
Track Severe Weather on mobile